createdAt,value
2023-01-31T00:01:43.962Z,87.61
2023-01-31T00:06:51.191Z,87.00
2023-01-31T00:11:53.433Z,86.33
2023-01-31T00:16:55.394Z,86.13
2023-01-31T00:21:57.708Z,86.19
2023-01-31T00:26:59.719Z,86.48
2023-01-31T00:32:01.633Z,87.80
2023-01-31T00:37:03.427Z,87.61
2023-01-31T00:42:07.612Z,87.39
2023-01-31T00:47:09.285Z,89.58
2023-01-31T00:52:10.947Z,90.40
2023-01-31T00:57:12.681Z,91.77
2023-01-31T01:02:15.059Z,91.39
2023-01-31T01:07:16.841Z,90.37
2023-01-31T01:12:18.645Z,88.85
2023-01-31T01:17:20.697Z,89.80
2023-01-31T01:22:24.060Z,89.80
2023-01-31T01:27:27.327Z,90.12
2023-01-31T01:32:29.769Z,91.54
2023-01-31T01:37:31.656Z,97.43
2023-01-31T01:42:36.321Z,100.00
2023-01-31T01:48:06.907Z,100.00
2023-01-31T01:53:17.818Z,100.00
2023-01-31T01:58:24.435Z,100.00
2023-01-31T02:03:27.315Z,98.22
2023-01-31T02:08:32.252Z,97.42
2023-01-31T02:13:34.570Z,96.52
2023-01-31T02:18:36.332Z,97.97
2023-01-31T02:23:40.993Z,95.95
2023-01-31T02:28:55.020Z,94.08
2023-01-31T02:34:07.821Z,93.14
2023-01-31T02:39:24.614Z,90.36
2023-01-31T02:44:59.243Z,90.61
2023-01-31T02:50:19.468Z,91.05
2023-01-31T02:55:56.467Z,89.73
2023-01-31T03:01:04.164Z,88.96
2023-01-31T03:06:24.745Z,90.31
2023-01-31T03:11:47.857Z,89.55
2023-01-31T03:17:21.644Z,89.75
2023-01-31T03:22:31.677Z,90.43
2023-01-31T03:27:34.990Z,92.52
2023-01-31T03:32:51.520Z,93.62
2023-01-31T03:38:17.656Z,95.81
2023-01-31T03:43:27.179Z,99.08
2023-01-31T03:48:37.183Z,100.00
2023-01-31T03:53:46.796Z,100.00
2023-01-31T03:58:53.815Z,100.00
2023-01-31T04:03:58.423Z,100.00
2023-01-31T04:09:00.607Z,100.00
2023-01-31T04:14:02.364Z,100.00
2023-01-31T04:19:04.079Z,100.00
2023-01-31T04:24:06.115Z,100.00
2023-01-31T04:29:08.017Z,100.00
2023-01-31T04:34:10.295Z,98.58
2023-01-31T04:39:13.663Z,97.42
2023-01-31T04:44:16.692Z,95.78
2023-01-31T04:49:18.375Z,94.97
2023-01-31T04:54:20.350Z,94.67
2023-01-31T04:59:22.035Z,92.94
2023-01-31T05:04:23.784Z,93.30
2023-01-31T05:09:26.077Z,93.66
2023-01-31T05:14:28.058Z,94.85
2023-01-31T05:19:30.113Z,93.99
2023-01-31T05:24:33.683Z,93.10
2023-01-31T05:29:35.468Z,93.25
2023-01-31T05:34:37.416Z,92.95
2023-01-31T05:39:39.222Z,92.53
2023-01-31T05:44:40.930Z,93.22
2023-01-31T05:49:42.584Z,93.45
2023-01-31T05:54:44.258Z,92.87
2023-01-31T05:59:45.950Z,95.02
2023-01-31T06:04:47.725Z,94.89
2023-01-31T06:09:49.517Z,94.51
2023-01-31T06:15:16.172Z,95.04
2023-01-31T06:20:18.148Z,94.75
2023-01-31T06:25:20.103Z,94.94
2023-01-31T06:30:21.985Z,95.88
2023-01-31T06:35:23.660Z,95.71
2023-01-31T06:40:25.563Z,96.56
2023-01-31T06:45:27.353Z,100.00
2023-01-31T06:50:29.041Z,100.00
2023-01-31T06:55:30.805Z,99.41
2023-01-31T07:00:32.915Z,98.46
2023-01-31T07:05:34.711Z,96.66
2023-01-31T07:10:36.401Z,95.36
2023-01-31T07:15:38.129Z,93.98
2023-01-31T07:20:40.966Z,92.85
2023-01-31T07:25:42.712Z,94.08
2023-01-31T07:30:46.205Z,92.65
2023-01-31T07:35:48.044Z,92.58
2023-01-31T07:40:50.331Z,92.72
2023-01-31T07:45:52.294Z,95.33
2023-01-31T07:51:02.057Z,96.24
2023-01-31T07:56:14.258Z,94.96
2023-01-31T08:01:42.514Z,94.46
2023-01-31T08:06:46.305Z,92.51
2023-01-31T08:11:48.182Z,90.22
2023-01-31T08:16:49.900Z,87.51
2023-01-31T08:21:51.611Z,87.00
2023-01-31T08:26:53.638Z,84.58
2023-01-31T08:31:55.443Z,82.95
2023-01-31T08:36:57.325Z,80.49
2023-01-31T08:41:59.012Z,81.76
2023-01-31T08:47:02.327Z,81.33
2023-01-31T08:52:04.365Z,81.23
2023-01-31T08:57:06.128Z,79.63
2023-01-31T09:02:11.188Z,78.83
2023-01-31T09:07:12.851Z,77.49
2023-01-31T09:12:14.475Z,77.20
2023-01-31T09:17:16.168Z,77.09
2023-01-31T09:22:18.036Z,76.06
2023-01-31T09:27:19.722Z,75.47
2023-01-31T09:32:21.385Z,74.08
2023-01-31T09:37:23.106Z,75.08
2023-01-31T09:42:31.913Z,73.24
2023-01-31T09:47:38.095Z,73.30
2023-01-31T09:52:39.781Z,74.11
2023-01-31T09:57:56.878Z,73.84
2023-01-31T10:03:18.435Z,73.07
2023-01-31T10:08:54.409Z,73.10
2023-01-31T10:14:05.113Z,72.87
2023-01-31T10:19:12.510Z,71.68
2023-01-31T10:24:46.314Z,72.53
2023-01-31T10:29:54.133Z,71.07
2023-01-31T10:35:21.913Z,70.48
2023-01-31T10:40:35.763Z,70.16
2023-01-31T10:45:38.567Z,70.22
2023-01-31T10:50:48.655Z,71.00
2023-01-31T10:56:13.479Z,69.71
2023-01-31T11:01:15.332Z,69.85
2023-01-31T11:06:17.630Z,70.91
2023-01-31T11:11:22.961Z,70.42
2023-01-31T11:16:28.229Z,71.17
2023-01-31T11:21:34.183Z,70.12
2023-01-31T11:26:39.084Z,70.19
2023-01-31T11:31:43.171Z,69.56
2023-01-31T11:36:46.535Z,68.02
2023-01-31T11:41:48.534Z,68.95
2023-01-31T11:46:54.512Z,68.40
2023-01-31T11:51:59.370Z,68.20
2023-01-31T11:57:02.049Z,68.07
2023-01-31T12:02:04.749Z,67.03
2023-01-31T12:07:22.407Z,66.62
2023-01-31T12:12:31.391Z,66.60
2023-01-31T12:17:42.896Z,65.76
2023-01-31T12:23:06.446Z,66.34
2023-01-31T12:28:37.793Z,67.48
2023-01-31T12:34:10.548Z,66.46
2023-01-31T12:39:44.274Z,67.96
2023-01-31T12:44:51.302Z,69.94
2023-01-31T12:50:17.393Z,74.65
2023-01-31T12:55:47.740Z,74.21
2023-01-31T13:00:56.595Z,76.13
2023-01-31T13:06:06.993Z,77.64
2023-01-31T13:11:13.856Z,77.29
2023-01-31T13:16:41.789Z,79.98
2023-01-31T13:21:49.028Z,80.82
2023-01-31T13:26:54.927Z,82.89
2023-01-31T13:32:25.604Z,87.36
2023-01-31T13:37:30.475Z,88.47
2023-01-31T13:42:33.256Z,88.48
2023-01-31T13:47:48.018Z,89.94
2023-01-31T13:52:57.005Z,90.15
2023-01-31T13:58:06.061Z,90.18
2023-01-31T14:03:16.831Z,88.91
2023-01-31T14:08:38.964Z,90.00
2023-01-31T14:13:43.903Z,90.63
2023-01-31T14:18:46.760Z,91.68
2023-01-31T14:23:48.569Z,90.59
2023-01-31T14:28:50.800Z,89.78
2023-01-31T14:33:57.434Z,90.69
2023-01-31T14:39:53.700Z,90.76
2023-01-31T14:44:59.385Z,91.13
2023-01-31T14:57:46.009Z,92.36
2023-01-31T15:02:47.951Z,91.24
2023-01-31T15:08:01.923Z,91.75
2023-01-31T15:13:04.031Z,92.05
2023-01-31T15:18:22.102Z,93.24
2023-01-31T15:23:27.664Z,95.18
2023-01-31T15:28:34.810Z,96.04
2023-01-31T15:33:41.377Z,95.05
2023-01-31T15:39:16.902Z,95.62
2023-01-31T15:44:24.002Z,96.14
2023-01-31T15:49:40.778Z,95.40
2023-01-31T15:55:00.059Z,97.65
2023-01-31T16:00:02.112Z,98.51
2023-01-31T16:05:09.687Z,100.00
2023-01-31T16:10:13.268Z,99.97
2023-01-31T16:15:21.884Z,99.66
2023-01-31T16:20:57.822Z,98.92
2023-01-31T16:26:08.625Z,98.62
2023-01-31T16:31:13.921Z,98.31
2023-01-31T16:36:20.679Z,98.13
2023-01-31T16:41:42.935Z,97.73
2023-01-31T16:46:46.506Z,96.92
2023-01-31T16:51:49.411Z,96.84
2023-01-31T16:57:03.007Z,96.43
2023-01-31T17:02:17.926Z,97.76
2023-01-31T17:07:27.316Z,98.66
2023-01-31T17:12:32.531Z,100.00
2023-01-31T17:17:37.318Z,100.00
2023-01-31T17:22:39.180Z,100.00
2023-01-31T17:27:41.146Z,100.00
2023-01-31T17:32:42.955Z,100.00
2023-01-31T17:37:45.339Z,99.43
2023-01-31T17:42:47.175Z,99.49
2023-01-31T17:47:49.062Z,100.00
2023-01-31T17:52:51.398Z,99.93
2023-01-31T17:57:53.235Z,99.00
2023-01-31T18:02:54.954Z,97.70
2023-01-31T18:07:56.646Z,96.94
2023-01-31T18:12:58.436Z,94.63
2023-01-31T18:18:00.824Z,93.20
2023-01-31T18:23:02.535Z,91.67
2023-01-31T18:28:04.408Z,90.55
2023-01-31T18:33:06.127Z,90.54
2023-01-31T18:38:08.689Z,90.04
2023-01-31T18:43:10.656Z,89.66
2023-01-31T18:48:12.440Z,88.93
2023-01-31T18:53:14.164Z,88.43
2023-01-31T18:58:16.531Z,88.95
2023-01-31T19:03:18.243Z,88.67
2023-01-31T19:08:19.972Z,88.86
2023-01-31T19:13:25.756Z,88.19
2023-01-31T19:18:27.562Z,88.75
2023-01-31T19:23:29.396Z,88.81
2023-01-31T19:28:31.684Z,88.10
2023-01-31T19:33:34.448Z,88.52
2023-01-31T19:38:36.139Z,88.36
2023-01-31T19:43:38.178Z,87.04
2023-01-31T19:48:39.929Z,87.66
2023-01-31T19:53:42.542Z,87.28
2023-01-31T19:58:44.569Z,86.19
2023-01-31T20:03:47.267Z,87.49
2023-01-31T20:08:54.954Z,86.95
2023-01-31T20:13:58.067Z,88.17
2023-01-31T20:19:06.345Z,89.79
2023-01-31T20:24:08.559Z,94.84
2023-01-31T20:29:12.303Z,99.22
2023-01-31T20:34:13.992Z,99.35
2023-01-31T20:39:15.615Z,99.10
2023-01-31T20:44:17.316Z,97.82
2023-01-31T20:49:21.313Z,95.75
2023-01-31T20:54:23.342Z,95.67
2023-01-31T20:59:25.099Z,93.52
2023-01-31T21:04:26.737Z,94.72
2023-01-31T21:09:28.957Z,97.43
2023-01-31T21:14:30.643Z,99.87
2023-01-31T21:19:32.275Z,100.00
2023-01-31T21:24:33.956Z,100.00
2023-01-31T21:29:35.608Z,100.00
2023-01-31T21:34:38.841Z,100.00
2023-01-31T21:39:42.265Z,100.00
2023-01-31T21:44:45.331Z,100.00
2023-01-31T21:49:47.177Z,100.00
2023-01-31T21:54:49.032Z,100.00
2023-01-31T21:59:50.844Z,100.00
2023-01-31T22:04:52.663Z,100.00
2023-01-31T22:09:54.471Z,100.00
2023-01-31T22:14:56.242Z,98.47
2023-01-31T22:19:57.897Z,97.69
2023-01-31T22:24:59.581Z,96.34
2023-01-31T22:30:15.224Z,95.38
2023-01-31T22:35:17.594Z,93.09
2023-01-31T22:40:19.696Z,92.59
2023-01-31T22:45:21.637Z,92.76
2023-01-31T22:50:23.568Z,90.24
2023-01-31T22:55:25.423Z,91.98
2023-01-31T23:00:27.102Z,90.28
2023-01-31T23:05:29.039Z,88.43
2023-01-31T23:10:30.664Z,87.65
2023-01-31T23:15:32.772Z,87.49
2023-01-31T23:20:34.509Z,89.47
2023-01-31T23:25:36.201Z,88.72
2023-01-31T23:30:38.098Z,88.42
2023-01-31T23:35:39.768Z,87.64
2023-01-31T23:40:41.663Z,88.32
2023-01-31T23:45:43.421Z,87.56
2023-01-31T23:50:45.102Z,86.46
2023-01-31T23:55:46.712Z,85.76
